Charles D Mcallister — WDB4383 — position and weather

sailwx.info

Track history (hours):
 
Tides and Currents Weather Stations Pressure Air Temp Water Temp Dewpoint Dewpoint Depression Visibility Wind Speed Wind Dir Waves Ship Positions

Charles D Mcallister

Owner: MC ALLISTER TOWING & TRANSPORTATION INC, Staten Island, NY. More information available from US FCC via Universal Licensing System and Coast Guard Vessel Documentation Center.

Last reported at 2017-Nov-22 21:30 UTC. Time now 2017-Nov-22 21:54 UTC.
Position N 40°38' W 074°10'.

Length 29 m.

Type: Tug. MMSI: 366897820.

Date/timePositionNaut miles runAvg speedWind from/ knotsBaromVisibWave heightAir tempDewpointWater temp
2017-Nov-22 21:30N 40°38' W 074°10'0 0.0
2017-Nov-22 21:00N 40°38' W 074°10'0 0.0
2017-Nov-22 20:30N 40°38' W 074°10'0 0.0
2017-Nov-22 20:00N 40°38' W 074°10'0 0.0
2017-Nov-22 19:30N 40°38' W 074°10'  
2017-Nov-20 00:30N 40°38' W 074°10'0 0.0
2017-Nov-20 00:00N 40°38' W 074°10'0 0.0
2017-Nov-19 23:30N 40°38' W 074°10'0 0.0
2017-Nov-19 23:00N 40°38' W 074°10'0 0.0
2017-Nov-19 22:30N 40°38' W 074°10'0 0.0
2017-Nov-19 22:00N 40°38' W 074°10'0 0.0
2017-Nov-19 21:30N 40°38' W 074°10'0 0.0
2017-Nov-19 21:00N 40°38' W 074°10'0 0.0
2017-Nov-19 20:30N 40°38' W 074°10'0 0.0
2017-Nov-19 20:00N 40°38' W 074°10'0 0.0
2017-Nov-19 19:30N 40°38' W 074°10'0 0.0
2017-Nov-19 19:00N 40°38' W 074°10'0 0.0
2017-Nov-19 18:30N 40°38' W 074°10'0 0.0
2017-Nov-19 18:00N 40°38' W 074°10'0 0.0
2017-Nov-19 17:30N 40°38' W 074°10'0 0.0
2017-Nov-19 17:00N 40°38' W 074°10'2 3.4
2017-Nov-19 16:30N 40°39' W 074°08'4 7.9
2017-Nov-19 16:00N 40°40' W 074°03'5 9.8
2017-Nov-19 15:30N 40°43' W 073°58'4 8.0
2017-Nov-19 15:00N 40°47' W 073°55'5 9.1
2017-Nov-19 14:30N 40°43' W 073°58'5 9.5
2017-Nov-19 14:00N 40°40' W 074°03'1 1.9
2017-Nov-19 13:30N 40°40' W 074°04'0 0.0
2017-Nov-19 13:00N 40°40' W 074°04'0 0.0
2017-Nov-19 12:30N 40°40' W 074°04'0 0.0
2017-Nov-19 12:00N 40°40' W 074°04'0 0.0
2017-Nov-19 11:30N 40°40' W 074°04'0 0.0
2017-Nov-19 11:00N 40°40' W 074°04'0 0.0
2017-Nov-19 10:30N 40°40' W 074°04'0 0.0
2017-Nov-19 10:00N 40°40' W 074°04'0 0.0
2017-Nov-19 09:30N 40°40' W 074°04'0 0.4
2017-Nov-19 09:00N 40°40' W 074°04'3 6.2
2017-Nov-19 08:30N 40°37' W 074°03'2 4.1
2017-Nov-19 08:00N 40°39' W 074°04'4 8.6
2017-Nov-19 07:30N 40°38' W 074°10'0 0.0
2017-Nov-19 06:59N 40°38' W 074°10'0 0.0
2017-Nov-19 06:30N 40°38' W 074°10'0 0.0
2017-Nov-19 06:00N 40°38' W 074°10'0 0.0
2017-Nov-19 05:29N 40°38' W 074°10'0 0.0
2017-Nov-19 04:30N 40°38' W 074°10'0 0.0
2017-Nov-19 04:00N 40°38' W 074°10'0 0.0
2017-Nov-19 03:30N 40°38' W 074°10'0 0.0
2017-Nov-19 03:00N 40°38' W 074°10'0 0.0
2017-Nov-19 02:29N 40°38' W 074°10'0 0.0
2017-Nov-19 02:00N 40°38' W 074°10'0 0.0
2017-Nov-19 01:30N 40°38' W 074°10'0 0.0
2017-Nov-19 01:00N 40°38' W 074°10'0 0.0
2017-Nov-19 00:30N 40°38' W 074°10'0 0.0
2017-Nov-19 00:00N 40°38' W 074°10'0 0.0
2017-Nov-18 23:30N 40°38' W 074°10'0 0.0
2017-Nov-18 23:00N 40°38' W 074°10'0 0.0
2017-Nov-18 22:30N 40°38' W 074°10'0 0.0
2017-Nov-18 22:01N 40°38' W 074°10'0 0.0
2017-Nov-18 21:30N 40°38' W 074°10'0 0.0
2017-Nov-18 21:00N 40°38' W 074°10'0 0.0
2017-Nov-18 20:30N 40°38' W 074°10'0 0.0
2017-Nov-18 20:00N 40°38' W 074°10'0 0.0
2017-Nov-18 19:30N 40°38' W 074°10'0 0.0
2017-Nov-18 19:00N 40°38' W 074°10'0 0.0
2017-Nov-18 18:30N 40°38' W 074°10'0 0.0
2017-Nov-18 18:00N 40°38' W 074°10'0 0.0
2017-Nov-18 17:30N 40°38' W 074°10'0 0.0
2017-Nov-18 17:00N 40°38' W 074°10'0 0.0
2017-Nov-18 16:30N 40°38' W 074°10'0 0.0
2017-Nov-18 16:00N 40°38' W 074°10'0 0.0
2017-Nov-18 15:30N 40°38' W 074°10'1 2.4
2017-Nov-18 15:00N 40°39' W 074°11'0 0.8
2017-Nov-18 14:30N 40°38' W 074°12'0 0.0
2017-Nov-18 13:59N 40°38' W 074°12'4 8.9
2017-Nov-18 13:30N 40°39' W 074°06'0 0.1
2017-Nov-18 12:58N 40°39' W 074°06'3 6.2
2017-Nov-18 12:30N 40°38' W 074°10'0 0.0
2017-Nov-18 12:00N 40°38' W 074°10'0 0.0
2017-Nov-18 11:30N 40°38' W 074°10'0 0.0
2017-Nov-18 11:00N 40°38' W 074°10'0 0.0
2017-Nov-18 10:30N 40°38' W 074°10'0 0.0
2017-Nov-18 10:00N 40°38' W 074°10'0 0.0
2017-Nov-18 09:30N 40°38' W 074°10'0 0.0
2017-Nov-18 09:00N 40°38' W 074°10'0 0.0
2017-Nov-18 08:30N 40°38' W 074°10'0 0.0
2017-Nov-18 08:00N 40°38' W 074°10'0 0.0
2017-Nov-18 07:31N 40°38' W 074°10'0 0.0
2017-Nov-18 07:00N 40°38' W 074°10'0 0.0
2017-Nov-18 06:30N 40°38' W 074°10'0 0.0
2017-Nov-18 06:00N 40°38' W 074°10'0 0.0
2017-Nov-18 05:30N 40°38' W 074°10'0 0.0
2017-Nov-18 05:00N 40°38' W 074°10'0 0.0
2017-Nov-18 04:30N 40°38' W 074°10'0 0.0
2017-Nov-18 04:00N 40°38' W 074°10'0 0.0
2017-Nov-18 03:30N 40°38' W 074°10'0 0.0
2017-Nov-18 03:00N 40°38' W 074°10'0 0.0
2017-Nov-18 02:30N 40°38' W 074°10'0 0.0
2017-Nov-18 02:00N 40°38' W 074°10'0 0.0
2017-Nov-18 01:30N 40°38' W 074°10'0 0.0
2017-Nov-18 01:00N 40°38' W 074°10'0 0.0
2017-Nov-18 00:30N 40°38' W 074°10'0 0.0
2017-Nov-18 00:00N 40°38' W 074°10'0 0.0
2017-Nov-17 23:30N 40°38' W 074°10'0 0.0
2017-Nov-17 23:00N 40°38' W 074°10'0 0.0
2017-Nov-17 22:30N 40°38' W 074°10'0 0.0
2017-Nov-17 22:00N 40°38' W 074°10'0 0.6
2017-Nov-17 21:30N 40°39' W 074°10'7 5.3
2017-Nov-17 20:07N 40°32' W 074°15'1 0.9
2017-Nov-17 18:38N 40°33' W 074°14'1 7.7
2017-Nov-17 18:28N 40°34' W 074°13'4 8.8
2017-Nov-17 18:00N 40°38' W 074°12'4 8.6
2017-Nov-17 17:30N 40°39' W 074°06'4 8.3
2017-Nov-17 17:00N 40°42' W 074°02'5 9.1
2017-Nov-17 16:30N 40°46' W 074°00'0 0.0
2017-Nov-17 16:00N 40°46' W 074°00'0 1.0
2017-Nov-17 15:30N 40°46' W 074°00'0 0.9
2017-Nov-17 15:00N 40°46' W 074°00'4 7.9
2017-Nov-17 14:30N 40°42' W 074°02'510.7
2017-Nov-17 14:00N 40°39' W 074°07'4 8.1
2017-Nov-17 13:30N 40°38' W 074°12'0 0.0
2017-Nov-17 13:00N 40°38' W 074°12'0 0.0
2017-Nov-17 12:30N 40°38' W 074°12'1 2.2
2017-Nov-17 12:00N 40°39' W 074°11'3 6.5
2017-Nov-17 11:30N 40°39' W 074°07'2 4.6
2017-Nov-17 11:01N 40°39' W 074°04'3 5.1
2017-Nov-17 10:30N 40°39' W 074°07'2 3.7
2017-Nov-17 10:00N 40°38' W 074°10'0 0.0
2017-Nov-17 09:30N 40°38' W 074°10'0 0.0
2017-Nov-17 09:00N 40°38' W 074°10'0 0.0
2017-Nov-17 08:30N 40°38' W 074°10'0 0.0
2017-Nov-17 08:00N 40°38' W 074°10'0 0.0
2017-Nov-17 07:30N 40°38' W 074°10'0 0.0
2017-Nov-17 07:00N 40°38' W 074°10'0 0.0
2017-Nov-17 06:30N 40°38' W 074°10'0 0.0
2017-Nov-17 06:00N 40°38' W 074°10'0 0.0
2017-Nov-17 05:30N 40°38' W 074°10'0 0.0
2017-Nov-17 05:00N 40°38' W 074°10'0 0.0
2017-Nov-17 04:30N 40°38' W 074°10'0 0.0
2017-Nov-17 04:00N 40°38' W 074°10'0 0.0
2017-Nov-17 03:30N 40°38' W 074°10'0 0.0
2017-Nov-17 03:00N 40°38' W 074°10'0 0.0
2017-Nov-17 02:30N 40°38' W 074°10'0 0.0
2017-Nov-17 02:00N 40°38' W 074°10'0 0.0
2017-Nov-17 01:30N 40°38' W 074°10'0 0.0
2017-Nov-17 01:00N 40°38' W 074°10'0 0.0
2017-Nov-17 00:30N 40°38' W 074°10'0 0.0
2017-Nov-17 00:01N 40°38' W 074°10'0 0.0
2017-Nov-16 23:30N 40°38' W 074°10'0 0.0
2017-Nov-16 23:00N 40°38' W 074°10'0 0.0
2017-Nov-16 22:30N 40°38' W 074°10'0 0.0
2017-Nov-16 21:59N 40°38' W 074°10'0 0.0
2017-Nov-16 21:30N 40°38' W 074°10'0 0.0
2017-Nov-16 21:00N 40°38' W 074°10'0 0.0
2017-Nov-16 20:30N 40°38' W 074°10'1 3.0
2017-Nov-16 20:00N 40°38' W 074°12'1 0.9
2017-Nov-16 18:31N 40°37' W 074°12'0 6.0
2017-Nov-16 18:27N 40°37' W 074°12'1 1.4
2017-Nov-16 18:00N 40°38' W 074°12'1 1.6
2017-Nov-16 17:30N 40°39' W 074°11'1 2.4
2017-Nov-16 17:00N 40°38' W 074°10'0 0.0
2017-Nov-16 16:30N 40°38' W 074°10'0 0.0
2017-Nov-16 16:00N 40°38' W 074°10'1 3.0
2017-Nov-16 15:30N 40°38' W 074°12'1 0.4
2017-Nov-16 12:52N 40°37' W 074°12'1 3.9
2017-Nov-16 12:30N 40°39' W 074°11'0 0.7
2017-Nov-16 12:00N 40°39' W 074°11'3 5.4
2017-Nov-16 11:30N 40°39' W 074°07'2 4.7
2017-Nov-16 11:00N 40°39' W 074°04'1 1.5
2017-Nov-16 10:30N 40°39' W 074°03'0 0.7
2017-Nov-16 10:00N 40°38' W 074°03'4 7.0
2017-Nov-16 09:30N 40°39' W 074°08'1 2.8
2017-Nov-16 09:00N 40°38' W 074°10'1 1.7
2017-Nov-16 08:29N 40°39' W 074°09'1 1.2
2017-Nov-16 08:00N 40°40' W 074°09'1 2.7
2017-Nov-16 07:30N 40°38' W 074°10'0 0.0
2017-Nov-16 07:00N 40°38' W 074°10'0 0.0
2017-Nov-16 06:30N 40°38' W 074°10'0 0.0
2017-Nov-16 06:00N 40°38' W 074°10'0 0.0
2017-Nov-16 05:30N 40°38' W 074°10'0 0.0
2017-Nov-16 05:00N 40°38' W 074°10'0 0.0
2017-Nov-16 04:30N 40°38' W 074°10'0 0.0
2017-Nov-16 04:00N 40°38' W 074°10'0 0.0
2017-Nov-16 03:30N 40°38' W 074°10'0 0.0
2017-Nov-16 03:00N 40°38' W 074°10'0 0.0
2017-Nov-16 02:30N 40°38' W 074°10'0 0.0
2017-Nov-16 01:59N 40°38' W 074°10'0 0.0
2017-Nov-16 01:30N 40°38' W 074°10'2 4.7
2017-Nov-16 01:00N 40°39' W 074°07'3 6.0
2017-Nov-16 00:30N 40°37' W 074°03'1 2.6
2017-Nov-16 00:00N 40°39' W 074°03'3 6.3
2017-Nov-15 23:31N 40°39' W 074°08'2 3.0
2017-Nov-15 23:00N 40°40' W 074°09'0 0.2
2017-Nov-15 22:30N 40°40' W 074°09'0 0.7
2017-Nov-15 22:00N 40°40' W 074°09'1 2.6
2017-Nov-15 21:30N 40°38' W 074°10'0 0.0
2017-Nov-15 21:00N 40°38' W 074°10'0 0.0
2017-Nov-15 20:30N 40°38' W 074°10'0 0.0
2017-Nov-15 20:00N 40°38' W 074°10'0 0.0
2017-Nov-15 19:30N 40°38' W 074°10'0 0.0
2017-Nov-15 19:00N 40°38' W 074°10'0 0.0
2017-Nov-15 18:30N 40°38' W 074°10'0 0.0
2017-Nov-15 18:00N 40°38' W 074°10'0 0.2
2017-Nov-15 17:30N 40°39' W 074°10'0 0.2
2017-Nov-15 17:00N 40°38' W 074°10'0 0.4
2017-Nov-15 16:30N 40°38' W 074°10'2 3.9
2017-Nov-15 16:00N 40°40' W 074°08'0 0.2
2017-Nov-15 15:31N 40°40' W 074°08'2 3.1
2017-Nov-15 15:00N 40°39' W 074°08'3 6.0
2017-Nov-15 14:31N 40°40' W 074°04'0 0.7
2017-Nov-15 14:00N 40°40' W 074°04'0 0.0
2017-Nov-15 13:30N 40°40' W 074°04'1 2.1
2017-Nov-15 13:00N 40°41' W 074°04'1 1.7
2017-Nov-15 12:30N 40°40' W 074°04'1 1.9
2017-Nov-15 12:00N 40°40' W 074°03'4 9.0
2017-Nov-15 11:31N 40°38' W 074°09'0 0.6
2017-Nov-15 11:00N 40°38' W 074°09'1 2.4
2017-Nov-15 10:30N 40°40' W 074°09'0 0.0
2017-Nov-15 10:00N 40°40' W 074°09'1 2.3
2017-Nov-15 09:30N 40°41' W 074°08'1 2.4
2017-Nov-15 09:00N 40°42' W 074°08'1 2.3
2017-Nov-15 08:30N 40°41' W 074°08'3 5.1
2017-Nov-15 08:00N 40°38' W 074°10'0 0.0
2017-Nov-15 07:30N 40°38' W 074°10'0 0.0
2017-Nov-15 07:00N 40°38' W 074°10'0 0.0
2017-Nov-15 06:30N 40°38' W 074°10'0 0.0
2017-Nov-15 06:00N 40°38' W 074°10'0 0.0
2017-Nov-15 05:30N 40°38' W 074°10'0 0.0
2017-Nov-15 05:00N 40°38' W 074°10'0 0.0
2017-Nov-15 04:30N 40°38' W 074°10'0 0.0
2017-Nov-15 03:59N 40°38' W 074°10'0 0.0
2017-Nov-15 03:30N 40°38' W 074°10'0 0.0
2017-Nov-15 03:00N 40°38' W 074°10'0 0.0
2017-Nov-15 02:30N 40°38' W 074°10'0 0.0
2017-Nov-15 02:00N 40°38' W 074°10'0 0.0
2017-Nov-15 01:30N 40°38' W 074°10'0 0.0
2017-Nov-15 01:00N 40°38' W 074°10'2 3.3
2017-Nov-15 00:30N 40°40' W 074°09'0 0.1
2017-Nov-15 00:00N 40°40' W 074°09'0 0.4
2017-Nov-14 23:30N 40°40' W 074°09'0 0.1
2017-Nov-14 23:00N 40°40' W 074°09'1 1.2
2017-Nov-14 22:30N 40°39' W 074°09'2 4.5
2017-Nov-14 22:00N 40°39' W 074°06'2 4.2
2017-Nov-14 21:30N 40°38' W 074°09'1 1.8
2017-Nov-14 21:00N 40°38' W 074°10'1 1.0
2017-Nov-14 20:30N 40°39' W 074°09'3 5.6
2017-Nov-14 20:00N 40°37' W 074°12'4 3.0
2017-Nov-14 18:35N 40°33' W 074°15'1 9.7
2017-Nov-14 18:30N 40°33' W 074°14'4 7.2
2017-Nov-14 18:00N 40°37' W 074°12'3 6.0
2017-Nov-14 17:30N 40°39' W 074°09'0 0.7
2017-Nov-14 17:00N 40°39' W 074°09'2 3.9
2017-Nov-14 16:30N 40°39' W 074°06'2 4.7
2017-Nov-14 16:01N 40°41' W 074°08'2 3.9
2017-Nov-14 15:30N 40°39' W 074°09'3 5.7
2017-Nov-14 15:00N 40°39' W 074°05'3 5.6
2017-Nov-14 14:30N 40°37' W 074°03'0 0.7
2017-Nov-14 14:00N 40°36' W 074°03'4 8.6
2017-Nov-14 13:30N 40°39' W 074°08'2 3.0
2017-Nov-14 13:00N 40°38' W 074°10'0 0.0
2017-Nov-14 12:30N 40°38' W 074°10'0 0.0
2017-Nov-14 12:00N 40°38' W 074°10'0 0.0
2017-Nov-14 11:30N 40°38' W 074°10'0 0.0
2017-Nov-14 11:00N 40°38' W 074°10'0 0.0
2017-Nov-14 10:30N 40°38' W 074°10'0 0.0
2017-Nov-14 10:00N 40°38' W 074°10'0 0.0
2017-Nov-14 09:30N 40°38' W 074°10'0 0.0
2017-Nov-14 09:00N 40°38' W 074°10'0 0.0
2017-Nov-14 08:30N 40°38' W 074°10'0 0.0
2017-Nov-14 08:00N 40°38' W 074°10'0 0.0
2017-Nov-14 07:30N 40°38' W 074°10'0 0.0
2017-Nov-14 07:00N 40°38' W 074°10'0 0.0
2017-Nov-14 06:30N 40°38' W 074°10'0 0.0
2017-Nov-14 06:00N 40°38' W 074°10'0 0.0
2017-Nov-14 05:30N 40°38' W 074°10'0 0.0
2017-Nov-14 05:00N 40°38' W 074°10'0 0.0
2017-Nov-14 04:30N 40°38' W 074°10'0 0.0
2017-Nov-14 04:00N 40°38' W 074°10'0 0.0
2017-Nov-14 03:30N 40°38' W 074°10'0 0.0
2017-Nov-14 03:00N 40°38' W 074°10'0 0.0
2017-Nov-14 02:30N 40°38' W 074°10'0 0.0
2017-Nov-14 02:00N 40°38' W 074°10'0 0.0
2017-Nov-14 01:30N 40°38' W 074°10'0 0.0
2017-Nov-14 00:59N 40°38' W 074°10'0 0.0
2017-Nov-14 00:30N 40°38' W 074°10'0 0.0
2017-Nov-14 00:00N 40°38' W 074°10'0 0.0
2017-Nov-13 23:30N 40°38' W 074°10'0 0.0
2017-Nov-13 23:00N 40°38' W 074°10'4 7.4
2017-Nov-13 22:30N 40°39' W 074°05'5 9.9
2017-Nov-13 22:00N 40°35' W 074°02'7 0.3
2017-Nov-13 01:59N 40°38' W 074°10'0 0.0
2017-Nov-13 01:30N 40°38' W 074°10'0 0.0
2017-Nov-13 01:00N 40°38' W 074°10'0 0.0
2017-Nov-13 00:29N 40°38' W 074°10'0 0.0
2017-Nov-13 00:00N 40°38' W 074°10'0 0.0
2017-Nov-12 23:30N 40°38' W 074°10'0 0.0
2017-Nov-12 22:59N 40°38' W 074°10'0 0.0
2017-Nov-12 22:29N 40°38' W 074°10'0 0.0
2017-Nov-12 22:00N 40°38' W 074°10'0 0.0
2017-Nov-12 21:30N 40°38' W 074°10'  
Track history (hours):
 
Tides and Currents Weather Stations Pressure Air Temp Water Temp Dewpoint Dewpoint Depression Visibility Wind Speed Wind Dir Waves Ship Positions

Charles D Mcallister

Owner: MC ALLISTER TOWING & TRANSPORTATION INC, Staten Island, NY. More information available from US FCC via Universal Licensing System and Coast Guard Vessel Documentation Center.

Last reported at 2017-Nov-22 21:30 UTC. Time now 2017-Nov-22 21:54 UTC.
Position N 40°38' W 074°10'.

Length 29 m.

Type: Tug. MMSI: 366897820.

Date/timePositionNaut miles runAvg speedWind from/ knotsBaromVisibWave heightAir tempDewpointWater temp
2017-Nov-22 21:30N 40°38' W 074°10'0 0.0
2017-Nov-22 21:00N 40°38' W 074°10'0 0.0
2017-Nov-22 20:30N 40°38' W 074°10'0 0.0
2017-Nov-22 20:00N 40°38' W 074°10'0 0.0
2017-Nov-22 19:30N 40°38' W 074°10'  
2017-Nov-20 00:30N 40°38' W 074°10'0 0.0
2017-Nov-20 00:00N 40°38' W 074°10'0 0.0
2017-Nov-19 23:30N 40°38' W 074°10'0 0.0
2017-Nov-19 23:00N 40°38' W 074°10'0 0.0
2017-Nov-19 22:30N 40°38' W 074°10'0 0.0
2017-Nov-19 22:00N 40°38' W 074°10'0 0.0
2017-Nov-19 21:30N 40°38' W 074°10'0 0.0
2017-Nov-19 21:00N 40°38' W 074°10'0 0.0
2017-Nov-19 20:30N 40°38' W 074°10'0 0.0
2017-Nov-19 20:00N 40°38' W 074°10'0 0.0
2017-Nov-19 19:30N 40°38' W 074°10'0 0.0
2017-Nov-19 19:00N 40°38' W 074°10'0 0.0
2017-Nov-19 18:30N 40°38' W 074°10'0 0.0
2017-Nov-19 18:00N 40°38' W 074°10'0 0.0
2017-Nov-19 17:30N 40°38' W 074°10'0 0.0
2017-Nov-19 17:00N 40°38' W 074°10'2 3.4
2017-Nov-19 16:30N 40°39' W 074°08'4 7.9
2017-Nov-19 16:00N 40°40' W 074°03'5 9.8
2017-Nov-19 15:30N 40°43' W 073°58'4 8.0
2017-Nov-19 15:00N 40°47' W 073°55'5 9.1
2017-Nov-19 14:30N 40°43' W 073°58'5 9.5
2017-Nov-19 14:00N 40°40' W 074°03'1 1.9
2017-Nov-19 13:30N 40°40' W 074°04'0 0.0
2017-Nov-19 13:00N 40°40' W 074°04'0 0.0
2017-Nov-19 12:30N 40°40' W 074°04'0 0.0
2017-Nov-19 12:00N 40°40' W 074°04'0 0.0
2017-Nov-19 11:30N 40°40' W 074°04'0 0.0
2017-Nov-19 11:00N 40°40' W 074°04'0 0.0
2017-Nov-19 10:30N 40°40' W 074°04'0 0.0
2017-Nov-19 10:00N 40°40' W 074°04'0 0.0
2017-Nov-19 09:30N 40°40' W 074°04'0 0.4
2017-Nov-19 09:00N 40°40' W 074°04'3 6.2
2017-Nov-19 08:30N 40°37' W 074°03'2 4.1
2017-Nov-19 08:00N 40°39' W 074°04'4 8.6
2017-Nov-19 07:30N 40°38' W 074°10'0 0.0
2017-Nov-19 06:59N 40°38' W 074°10'0 0.0
2017-Nov-19 06:30N 40°38' W 074°10'0 0.0
2017-Nov-19 06:00N 40°38' W 074°10'0 0.0
2017-Nov-19 05:29N 40°38' W 074°10'0 0.0
2017-Nov-19 04:30N 40°38' W 074°10'0 0.0
2017-Nov-19 04:00N 40°38' W 074°10'0 0.0
2017-Nov-19 03:30N 40°38' W 074°10'0 0.0
2017-Nov-19 03:00N 40°38' W 074°10'0 0.0
2017-Nov-19 02:29N 40°38' W 074°10'0 0.0
2017-Nov-19 02:00N 40°38' W 074°10'0 0.0
2017-Nov-19 01:30N 40°38' W 074°10'0 0.0
2017-Nov-19 01:00N 40°38' W 074°10'0 0.0
2017-Nov-19 00:30N 40°38' W 074°10'0 0.0
2017-Nov-19 00:00N 40°38' W 074°10'0 0.0
2017-Nov-18 23:30N 40°38' W 074°10'0 0.0
2017-Nov-18 23:00N 40°38' W 074°10'0 0.0
2017-Nov-18 22:30N 40°38' W 074°10'0 0.0
2017-Nov-18 22:01N 40°38' W 074°10'0 0.0
2017-Nov-18 21:30N 40°38' W 074°10'0 0.0
2017-Nov-18 21:00N 40°38' W 074°10'0 0.0
2017-Nov-18 20:30N 40°38' W 074°10'0 0.0
2017-Nov-18 20:00N 40°38' W 074°10'0 0.0
2017-Nov-18 19:30N 40°38' W 074°10'0 0.0
2017-Nov-18 19:00N 40°38' W 074°10'0 0.0
2017-Nov-18 18:30N 40°38' W 074°10'0 0.0
2017-Nov-18 18:00N 40°38' W 074°10'0 0.0
2017-Nov-18 17:30N 40°38' W 074°10'0 0.0
2017-Nov-18 17:00N 40°38' W 074°10'0 0.0
2017-Nov-18 16:30N 40°38' W 074°10'0 0.0
2017-Nov-18 16:00N 40°38' W 074°10'0 0.0
2017-Nov-18 15:30N 40°38' W 074°10'1 2.4
2017-Nov-18 15:00N 40°39' W 074°11'0 0.8
2017-Nov-18 14:30N 40°38' W 074°12'0 0.0
2017-Nov-18 13:59N 40°38' W 074°12'4 8.9
2017-Nov-18 13:30N 40°39' W 074°06'0 0.1
2017-Nov-18 12:58N 40°39' W 074°06'3 6.2
2017-Nov-18 12:30N 40°38' W 074°10'0 0.0
2017-Nov-18 12:00N 40°38' W 074°10'0 0.0
2017-Nov-18 11:30N 40°38' W 074°10'0 0.0
2017-Nov-18 11:00N 40°38' W 074°10'0 0.0
2017-Nov-18 10:30N 40°38' W 074°10'0 0.0
2017-Nov-18 10:00N 40°38' W 074°10'0 0.0
2017-Nov-18 09:30N 40°38' W 074°10'0 0.0
2017-Nov-18 09:00N 40°38' W 074°10'0 0.0
2017-Nov-18 08:30N 40°38' W 074°10'0 0.0
2017-Nov-18 08:00N 40°38' W 074°10'0 0.0
2017-Nov-18 07:31N 40°38' W 074°10'0 0.0
2017-Nov-18 07:00N 40°38' W 074°10'0 0.0
2017-Nov-18 06:30N 40°38' W 074°10'0 0.0
2017-Nov-18 06:00N 40°38' W 074°10'0 0.0
2017-Nov-18 05:30N 40°38' W 074°10'0 0.0
2017-Nov-18 05:00N 40°38' W 074°10'0 0.0
2017-Nov-18 04:30N 40°38' W 074°10'0 0.0
2017-Nov-18 04:00N 40°38' W 074°10'0 0.0
2017-Nov-18 03:30N 40°38' W 074°10'0 0.0
2017-Nov-18 03:00N 40°38' W 074°10'0 0.0
2017-Nov-18 02:30N 40°38' W 074°10'0 0.0
2017-Nov-18 02:00N 40°38' W 074°10'0 0.0
2017-Nov-18 01:30N 40°38' W 074°10'0 0.0
2017-Nov-18 01:00N 40°38' W 074°10'0 0.0
2017-Nov-18 00:30N 40°38' W 074°10'0 0.0
2017-Nov-18 00:00N 40°38' W 074°10'0 0.0
2017-Nov-17 23:30N 40°38' W 074°10'0 0.0
2017-Nov-17 23:00N 40°38' W 074°10'0 0.0
2017-Nov-17 22:30N 40°38' W 074°10'0 0.0
2017-Nov-17 22:00N 40°38' W 074°10'0 0.6
2017-Nov-17 21:30N 40°39' W 074°10'7 5.3
2017-Nov-17 20:07N 40°32' W 074°15'1 0.9
2017-Nov-17 18:38N 40°33' W 074°14'1 7.7
2017-Nov-17 18:28N 40°34' W 074°13'4 8.8
2017-Nov-17 18:00N 40°38' W 074°12'4 8.6
2017-Nov-17 17:30N 40°39' W 074°06'4 8.3
2017-Nov-17 17:00N 40°42' W 074°02'5 9.1
2017-Nov-17 16:30N 40°46' W 074°00'0 0.0
2017-Nov-17 16:00N 40°46' W 074°00'0 1.0
2017-Nov-17 15:30N 40°46' W 074°00'0 0.9
2017-Nov-17 15:00N 40°46' W 074°00'4 7.9
2017-Nov-17 14:30N 40°42' W 074°02'510.7
2017-Nov-17 14:00N 40°39' W 074°07'4 8.1
2017-Nov-17 13:30N 40°38' W 074°12'0 0.0
2017-Nov-17 13:00N 40°38' W 074°12'0 0.0
2017-Nov-17 12:30N 40°38' W 074°12'1 2.2
2017-Nov-17 12:00N 40°39' W 074°11'3 6.5
2017-Nov-17 11:30N 40°39' W 074°07'2 4.6
2017-Nov-17 11:01N 40°39' W 074°04'3 5.1
2017-Nov-17 10:30N 40°39' W 074°07'2 3.7
2017-Nov-17 10:00N 40°38' W 074°10'0 0.0
2017-Nov-17 09:30N 40°38' W 074°10'0 0.0
2017-Nov-17 09:00N 40°38' W 074°10'0 0.0
2017-Nov-17 08:30N 40°38' W 074°10'0 0.0
2017-Nov-17 08:00N 40°38' W 074°10'0 0.0
2017-Nov-17 07:30N 40°38' W 074°10'0 0.0
2017-Nov-17 07:00N 40°38' W 074°10'0 0.0
2017-Nov-17 06:30N 40°38' W 074°10'0 0.0
2017-Nov-17 06:00N 40°38' W 074°10'0 0.0
2017-Nov-17 05:30N 40°38' W 074°10'0 0.0
2017-Nov-17 05:00N 40°38' W 074°10'0 0.0
2017-Nov-17 04:30N 40°38' W 074°10'0 0.0
2017-Nov-17 04:00N 40°38' W 074°10'0 0.0
2017-Nov-17 03:30N 40°38' W 074°10'0 0.0
2017-Nov-17 03:00N 40°38' W 074°10'0 0.0
2017-Nov-17 02:30N 40°38' W 074°10'0 0.0
2017-Nov-17 02:00N 40°38' W 074°10'0 0.0
2017-Nov-17 01:30N 40°38' W 074°10'0 0.0
2017-Nov-17 01:00N 40°38' W 074°10'0 0.0
2017-Nov-17 00:30N 40°38' W 074°10'0 0.0
2017-Nov-17 00:01N 40°38' W 074°10'0 0.0
2017-Nov-16 23:30N 40°38' W 074°10'0 0.0
2017-Nov-16 23:00N 40°38' W 074°10'0 0.0
2017-Nov-16 22:30N 40°38' W 074°10'0 0.0
2017-Nov-16 21:59N 40°38' W 074°10'0 0.0
2017-Nov-16 21:30N 40°38' W 074°10'0 0.0
2017-Nov-16 21:00N 40°38' W 074°10'0 0.0
2017-Nov-16 20:30N 40°38' W 074°10'1 3.0
2017-Nov-16 20:00N 40°38' W 074°12'1 0.9
2017-Nov-16 18:31N 40°37' W 074°12'0 6.0
2017-Nov-16 18:27N 40°37' W 074°12'1 1.4
2017-Nov-16 18:00N 40°38' W 074°12'1 1.6
2017-Nov-16 17:30N 40°39' W 074°11'1 2.4
2017-Nov-16 17:00N 40°38' W 074°10'0 0.0
2017-Nov-16 16:30N 40°38' W 074°10'0 0.0
2017-Nov-16 16:00N 40°38' W 074°10'1 3.0
2017-Nov-16 15:30N 40°38' W 074°12'1 0.4
2017-Nov-16 12:52N 40°37' W 074°12'1 3.9
2017-Nov-16 12:30N 40°39' W 074°11'0 0.7
2017-Nov-16 12:00N 40°39' W 074°11'3 5.4
2017-Nov-16 11:30N 40°39' W 074°07'2 4.7
2017-Nov-16 11:00N 40°39' W 074°04'1 1.5
2017-Nov-16 10:30N 40°39' W 074°03'0 0.7
2017-Nov-16 10:00N 40°38' W 074°03'4 7.0
2017-Nov-16 09:30N 40°39' W 074°08'1 2.8
2017-Nov-16 09:00N 40°38' W 074°10'1 1.7
2017-Nov-16 08:29N 40°39' W 074°09'1 1.2
2017-Nov-16 08:00N 40°40' W 074°09'1 2.7
2017-Nov-16 07:30N 40°38' W 074°10'0 0.0
2017-Nov-16 07:00N 40°38' W 074°10'0 0.0
2017-Nov-16 06:30N 40°38' W 074°10'0 0.0
2017-Nov-16 06:00N 40°38' W 074°10'0 0.0
2017-Nov-16 05:30N 40°38' W 074°10'0 0.0
2017-Nov-16 05:00N 40°38' W 074°10'0 0.0
2017-Nov-16 04:30N 40°38' W 074°10'0 0.0
2017-Nov-16 04:00N 40°38' W 074°10'0 0.0
2017-Nov-16 03:30N 40°38' W 074°10'0 0.0
2017-Nov-16 03:00N 40°38' W 074°10'0 0.0
2017-Nov-16 02:30N 40°38' W 074°10'0 0.0
2017-Nov-16 01:59N 40°38' W 074°10'0 0.0
2017-Nov-16 01:30N 40°38' W 074°10'2 4.7
2017-Nov-16 01:00N 40°39' W 074°07'3 6.0
2017-Nov-16 00:30N 40°37' W 074°03'1 2.6
2017-Nov-16 00:00N 40°39' W 074°03'3 6.3
2017-Nov-15 23:31N 40°39' W 074°08'2 3.0
2017-Nov-15 23:00N 40°40' W 074°09'0 0.2
2017-Nov-15 22:30N 40°40' W 074°09'0 0.7
2017-Nov-15 22:00N 40°40' W 074°09'1 2.6
2017-Nov-15 21:30N 40°38' W 074°10'0 0.0
2017-Nov-15 21:00N 40°38' W 074°10'0 0.0
2017-Nov-15 20:30N 40°38' W 074°10'0 0.0
2017-Nov-15 20:00N 40°38' W 074°10'0 0.0
2017-Nov-15 19:30N 40°38' W 074°10'0 0.0
2017-Nov-15 19:00N 40°38' W 074°10'0 0.0
2017-Nov-15 18:30N 40°38' W 074°10'0 0.0
2017-Nov-15 18:00N 40°38' W 074°10'0 0.2
2017-Nov-15 17:30N 40°39' W 074°10'0 0.2
2017-Nov-15 17:00N 40°38' W 074°10'0 0.4
2017-Nov-15 16:30N 40°38' W 074°10'2 3.9
2017-Nov-15 16:00N 40°40' W 074°08'0 0.2
2017-Nov-15 15:31N 40°40' W 074°08'2 3.1
2017-Nov-15 15:00N 40°39' W 074°08'3 6.0
2017-Nov-15 14:31N 40°40' W 074°04'0 0.7
2017-Nov-15 14:00N 40°40' W 074°04'0 0.0
2017-Nov-15 13:30N 40°40' W 074°04'1 2.1
2017-Nov-15 13:00N 40°41' W 074°04'1 1.7
2017-Nov-15 12:30N 40°40' W 074°04'1 1.9
2017-Nov-15 12:00N 40°40' W 074°03'4 9.0
2017-Nov-15 11:31N 40°38' W 074°09'0 0.6
2017-Nov-15 11:00N 40°38' W 074°09'1 2.4
2017-Nov-15 10:30N 40°40' W 074°09'0 0.0
2017-Nov-15 10:00N 40°40' W 074°09'1 2.3
2017-Nov-15 09:30N 40°41' W 074°08'1 2.4
2017-Nov-15 09:00N 40°42' W 074°08'1 2.3
2017-Nov-15 08:30N 40°41' W 074°08'3 5.1
2017-Nov-15 08:00N 40°38' W 074°10'0 0.0
2017-Nov-15 07:30N 40°38' W 074°10'0 0.0
2017-Nov-15 07:00N 40°38' W 074°10'0 0.0
2017-Nov-15 06:30N 40°38' W 074°10'0 0.0
2017-Nov-15 06:00N 40°38' W 074°10'0 0.0
2017-Nov-15 05:30N 40°38' W 074°10'0 0.0
2017-Nov-15 05:00N 40°38' W 074°10'0 0.0
2017-Nov-15 04:30N 40°38' W 074°10'0 0.0
2017-Nov-15 03:59N 40°38' W 074°10'0 0.0
2017-Nov-15 03:30N 40°38' W 074°10'0 0.0
2017-Nov-15 03:00N 40°38' W 074°10'0 0.0
2017-Nov-15 02:30N 40°38' W 074°10'0 0.0
2017-Nov-15 02:00N 40°38' W 074°10'0 0.0
2017-Nov-15 01:30N 40°38' W 074°10'0 0.0
2017-Nov-15 01:00N 40°38' W 074°10'2 3.3
2017-Nov-15 00:30N 40°40' W 074°09'0 0.1
2017-Nov-15 00:00N 40°40' W 074°09'0 0.4
2017-Nov-14 23:30N 40°40' W 074°09'0 0.1
2017-Nov-14 23:00N 40°40' W 074°09'1 1.2
2017-Nov-14 22:30N 40°39' W 074°09'2 4.5
2017-Nov-14 22:00N 40°39' W 074°06'2 4.2
2017-Nov-14 21:30N 40°38' W 074°09'1 1.8
2017-Nov-14 21:00N 40°38' W 074°10'1 1.0
2017-Nov-14 20:30N 40°39' W 074°09'3 5.6
2017-Nov-14 20:00N 40°37' W 074°12'4 3.0
2017-Nov-14 18:35N 40°33' W 074°15'1 9.7
2017-Nov-14 18:30N 40°33' W 074°14'4 7.2
2017-Nov-14 18:00N 40°37' W 074°12'3 6.0
2017-Nov-14 17:30N 40°39' W 074°09'0 0.7
2017-Nov-14 17:00N 40°39' W 074°09'2 3.9
2017-Nov-14 16:30N 40°39' W 074°06'2 4.7
2017-Nov-14 16:01N 40°41' W 074°08'2 3.9
2017-Nov-14 15:30N 40°39' W 074°09'3 5.7
2017-Nov-14 15:00N 40°39' W 074°05'3 5.6
2017-Nov-14 14:30N 40°37' W 074°03'0 0.7
2017-Nov-14 14:00N 40°36' W 074°03'4 8.6
2017-Nov-14 13:30N 40°39' W 074°08'2 3.0
2017-Nov-14 13:00N 40°38' W 074°10'0 0.0
2017-Nov-14 12:30N 40°38' W 074°10'0 0.0
2017-Nov-14 12:00N 40°38' W 074°10'0 0.0
2017-Nov-14 11:30N 40°38' W 074°10'0 0.0
2017-Nov-14 11:00N 40°38' W 074°10'0 0.0
2017-Nov-14 10:30N 40°38' W 074°10'0 0.0
2017-Nov-14 10:00N 40°38' W 074°10'0 0.0
2017-Nov-14 09:30N 40°38' W 074°10'0 0.0
2017-Nov-14 09:00N 40°38' W 074°10'0 0.0
2017-Nov-14 08:30N 40°38' W 074°10'0 0.0
2017-Nov-14 08:00N 40°38' W 074°10'0 0.0
2017-Nov-14 07:30N 40°38' W 074°10'0 0.0
2017-Nov-14 07:00N 40°38' W 074°10'0 0.0
2017-Nov-14 06:30N 40°38' W 074°10'0 0.0
2017-Nov-14 06:00N 40°38' W 074°10'0 0.0
2017-Nov-14 05:30N 40°38' W 074°10'0 0.0
2017-Nov-14 05:00N 40°38' W 074°10'0 0.0
2017-Nov-14 04:30N 40°38' W 074°10'0 0.0
2017-Nov-14 04:00N 40°38' W 074°10'0 0.0
2017-Nov-14 03:30N 40°38' W 074°10'0 0.0
2017-Nov-14 03:00N 40°38' W 074°10'0 0.0
2017-Nov-14 02:30N 40°38' W 074°10'0 0.0
2017-Nov-14 02:00N 40°38' W 074°10'0 0.0
2017-Nov-14 01:30N 40°38' W 074°10'0 0.0
2017-Nov-14 00:59N 40°38' W 074°10'0 0.0
2017-Nov-14 00:30N 40°38' W 074°10'0 0.0
2017-Nov-14 00:00N 40°38' W 074°10'0 0.0
2017-Nov-13 23:30N 40°38' W 074°10'0 0.0
2017-Nov-13 23:00N 40°38' W 074°10'4 7.4
2017-Nov-13 22:30N 40°39' W 074°05'5 9.9
2017-Nov-13 22:00N 40°35' W 074°02'7 0.3
2017-Nov-13 01:59N 40°38' W 074°10'0 0.0
2017-Nov-13 01:30N 40°38' W 074°10'0 0.0
2017-Nov-13 01:00N 40°38' W 074°10'0 0.0
2017-Nov-13 00:29N 40°38' W 074°10'0 0.0
2017-Nov-13 00:00N 40°38' W 074°10'0 0.0
2017-Nov-12 23:30N 40°38' W 074°10'0 0.0
2017-Nov-12 22:59N 40°38' W 074°10'0 0.0
2017-Nov-12 22:29N 40°38' W 074°10'0 0.0
2017-Nov-12 22:00N 40°38' W 074°10'0 0.0
2017-Nov-12 21:30N 40°38' W 074°10'  

Dump ship's entire track history